createdAt,value
2023-04-08T00:01:55.503Z,101067.16
2023-04-08T00:06:58.333Z,101067.75
2023-04-08T00:12:01.658Z,101067.25
2023-04-08T00:17:04.327Z,101061.84
2023-04-08T00:22:07.320Z,101057.50
2023-04-08T00:27:10.106Z,101060.56
2023-04-08T00:32:13.491Z,101069.16
2023-04-08T00:37:16.585Z,101062.88
2023-04-08T00:42:19.245Z,101062.97
2023-04-08T00:47:23.050Z,101062.78
2023-04-08T00:52:26.146Z,101064.66
2023-04-08T00:57:29.141Z,101063.97
2023-04-08T01:03:04.138Z,101070.19
2023-04-08T01:08:08.171Z,101074.09
2023-04-08T01:13:13.338Z,101067.56
2023-04-08T01:18:16.864Z,101065.97
2023-04-08T01:23:31.637Z,101055.13
2023-04-08T01:28:34.799Z,101060.19
2023-04-08T01:33:37.775Z,101060.56
2023-04-08T01:38:40.958Z,101044.97
2023-04-08T01:43:43.825Z,101052.38
2023-04-08T01:48:46.775Z,101048.41
2023-04-08T01:53:49.592Z,101050.97
2023-04-08T01:58:53.667Z,101044.44
2023-04-08T02:03:57.918Z,101042.38
2023-04-08T02:09:01.557Z,101042.13
2023-04-08T02:14:04.342Z,101026.97
2023-04-08T02:19:14.992Z,101038.00
2023-04-08T02:24:19.497Z,101031.91
2023-04-08T02:29:23.202Z,101029.66
2023-04-08T02:34:30.957Z,101028.97
2023-04-08T02:39:33.935Z,101036.72
2023-04-08T02:44:36.717Z,101015.56
2023-04-08T02:49:39.559Z,101022.16
2023-04-08T02:54:42.275Z,101016.53
2023-04-08T02:59:44.979Z,101014.81
2023-04-08T03:04:47.714Z,101002.81
2023-04-08T03:09:51.353Z,100993.66
2023-04-08T03:14:54.585Z,101011.53
2023-04-08T03:19:57.350Z,101008.84
2023-04-08T03:25:00.343Z,101010.81
2023-04-08T03:30:03.334Z,100998.81
2023-04-08T03:35:07.004Z,100987.50
2023-04-08T03:40:10.473Z,100995.09
2023-04-08T03:45:13.357Z,100978.16
2023-04-08T03:50:16.442Z,100986.78
2023-04-08T03:55:19.161Z,100972.28
2023-04-08T04:00:21.900Z,100969.94
2023-04-08T04:05:24.645Z,100965.47
2023-04-08T04:10:27.389Z,100954.59
2023-04-08T04:15:30.153Z,100955.78
2023-04-08T04:20:32.969Z,100942.69
2023-04-08T04:25:36.045Z,100948.91
2023-04-08T04:30:39.671Z,100935.03
2023-04-08T04:35:42.680Z,100927.50
2023-04-08T04:40:45.771Z,100917.31
2023-04-08T04:45:48.794Z,100897.38
2023-04-08T04:50:58.202Z,100904.13
2023-04-08T04:56:03.763Z,100885.88
2023-04-08T05:01:06.734Z,100886.16
2023-04-08T05:06:09.605Z,100869.03
2023-04-08T05:11:12.972Z,100862.06
2023-04-08T05:16:15.685Z,100867.56
2023-04-08T05:21:18.535Z,100867.75
2023-04-08T05:26:22.160Z,100852.75
2023-04-08T05:31:25.233Z,100835.72
2023-04-08T05:36:28.555Z,100833.47
2023-04-08T05:41:31.395Z,100827.91
2023-04-08T05:46:34.164Z,100820.75
2023-04-08T05:51:37.044Z,100813.06
2023-04-08T05:56:39.841Z,100796.84
2023-04-08T06:01:42.764Z,100791.66
2023-04-08T06:06:45.578Z,100781.47
2023-04-08T06:11:50.141Z,100778.28
2023-04-08T06:16:55.033Z,100773.50
2023-04-08T06:21:59.433Z,100759.44
2023-04-08T06:27:02.097Z,100740.88
2023-04-08T06:32:06.531Z,100706.94
2023-04-08T06:37:09.117Z,100723.13
2023-04-08T06:42:11.847Z,100717.88
2023-04-08T06:47:28.846Z,100708.16
2023-04-08T06:52:31.631Z,100680.09
2023-04-08T06:57:34.364Z,100666.91
2023-04-08T07:02:37.316Z,100660.78
2023-04-08T07:07:40.134Z,100649.84
2023-04-08T07:12:43.069Z,100650.84
2023-04-08T07:17:46.663Z,100642.91
2023-04-08T07:22:50.008Z,100626.13
2023-04-08T07:27:53.260Z,100614.78
2023-04-08T07:33:00.031Z,100598.63
2023-04-08T07:38:03.744Z,100581.38
2023-04-08T07:43:06.718Z,100568.94
2023-04-08T07:48:09.400Z,100567.22
2023-04-08T07:53:12.497Z,100556.31
2023-04-08T07:58:15.362Z,100541.28
2023-04-08T08:03:18.441Z,100536.06
2023-04-08T08:08:21.704Z,100526.31
2023-04-08T08:13:24.500Z,100522.81
2023-04-08T08:18:27.503Z,100520.41
2023-04-08T08:23:30.258Z,100520.41
2023-04-08T08:28:36.046Z,100510.63
2023-04-08T08:33:38.877Z,100505.25
2023-04-08T08:38:41.647Z,100487.97
2023-04-08T08:43:45.509Z,100487.44
2023-04-08T08:48:48.394Z,100478.94
2023-04-08T08:53:51.342Z,100473.13
2023-04-08T08:58:55.237Z,100466.06
2023-04-08T09:04:20.874Z,100458.22
2023-04-08T09:09:23.792Z,100447.03
2023-04-08T09:14:26.624Z,100446.06
2023-04-08T09:19:29.392Z,100435.88
2023-04-08T09:24:32.360Z,100428.00
2023-04-08T09:29:38.218Z,100416.88
2023-04-08T09:34:42.403Z,100407.00
2023-04-08T09:39:45.602Z,100412.47
2023-04-08T09:44:48.577Z,100396.19
2023-04-08T09:49:58.896Z,100391.59
2023-04-08T09:55:06.870Z,100377.56
2023-04-08T10:00:16.661Z,100374.28
2023-04-08T10:05:20.062Z,100364.38
2023-04-08T10:10:23.052Z,100349.88
2023-04-08T10:15:33.202Z,100347.41
2023-04-08T10:20:39.043Z,100340.66
2023-04-08T10:25:43.371Z,100329.22
2023-04-08T10:30:47.662Z,100329.00
2023-04-08T10:36:15.683Z,100322.38
2023-04-08T10:41:24.985Z,100309.72
2023-04-08T10:46:38.861Z,100305.63
2023-04-08T10:51:42.752Z,100298.09
2023-04-08T10:56:55.137Z,100274.88
2023-04-08T11:01:58.915Z,100274.13
2023-04-08T11:07:06.182Z,100281.09
2023-04-08T11:12:09.082Z,100281.31
2023-04-08T11:17:13.176Z,100271.63
2023-04-08T11:22:17.054Z,100267.72
2023-04-08T11:27:20.269Z,100258.88
2023-04-08T11:32:23.734Z,100251.03
2023-04-08T11:37:29.656Z,100218.84
2023-04-08T11:42:33.456Z,100228.84
2023-04-08T11:47:36.956Z,100233.63
2023-04-08T11:52:50.400Z,100214.03
2023-04-08T11:57:53.949Z,100213.03
2023-04-08T12:02:56.800Z,100200.53
2023-04-08T12:07:59.768Z,100190.09
2023-04-08T12:13:02.418Z,100192.28
2023-04-08T12:18:06.228Z,100191.59
2023-04-08T12:23:08.992Z,100195.53
2023-04-08T12:28:12.111Z,100184.94
2023-04-08T12:33:14.799Z,100172.66
2023-04-08T12:38:17.991Z,100182.25
2023-04-08T12:43:21.360Z,100145.31
2023-04-08T12:48:24.170Z,100167.94
2023-04-08T12:53:27.056Z,100163.25
2023-04-08T12:58:29.748Z,100161.03
2023-04-08T13:03:32.561Z,100159.41
2023-04-08T13:08:35.412Z,100151.84
2023-04-08T13:13:38.162Z,100155.31
2023-04-08T13:18:41.657Z,100161.50
2023-04-08T13:23:44.544Z,100148.47
2023-04-08T13:28:56.630Z,100144.41
2023-04-08T13:34:00.591Z,100146.59
2023-04-08T13:39:03.392Z,100142.91
2023-04-08T13:44:06.088Z,100105.16
2023-04-08T13:49:09.956Z,100127.84
2023-04-08T13:54:12.677Z,100116.19
2023-04-08T13:59:15.681Z,100128.81
2023-04-08T14:04:18.784Z,100112.03
2023-04-08T14:09:21.683Z,100113.97
2023-04-08T14:14:24.449Z,100130.78
2023-04-08T14:19:27.167Z,100109.59
2023-04-08T14:24:29.898Z,100121.59
2023-04-08T14:29:32.699Z,100123.31
2023-04-08T14:34:35.659Z,100123.63
2023-04-08T14:39:38.493Z,100121.34
2023-04-08T14:44:41.758Z,100106.06
2023-04-08T14:49:44.545Z,100105.94
2023-04-08T14:54:48.380Z,100121.91
2023-04-08T14:59:51.813Z,100113.19
2023-04-08T15:04:54.415Z,100116.13
2023-04-08T15:09:57.283Z,100127.47
2023-04-08T15:15:00.033Z,100126.34
2023-04-08T15:20:02.809Z,100135.72
2023-04-08T15:25:09.247Z,100128.09
2023-04-08T15:30:12.501Z,100121.66
2023-04-08T15:35:15.356Z,100126.97
2023-04-08T15:40:18.223Z,100150.00
2023-04-08T15:45:21.129Z,100143.59
2023-04-08T15:50:23.866Z,100143.91
2023-04-08T15:55:26.817Z,100145.94
2023-04-08T16:00:29.551Z,100172.06
2023-04-08T16:05:34.624Z,100156.69
2023-04-08T16:10:37.690Z,100150.97
2023-04-08T16:15:40.388Z,100139.91
2023-04-08T16:20:43.124Z,100133.25
2023-04-08T16:25:46.313Z,100128.13
2023-04-08T16:30:49.203Z,100118.91
2023-04-08T16:35:52.992Z,100125.63
2023-04-08T16:40:59.014Z,100114.03
2023-04-08T16:46:11.125Z,100097.78
2023-04-08T16:51:13.970Z,100094.03
2023-04-08T16:56:16.992Z,100084.84
2023-04-08T17:01:20.243Z,100071.72
2023-04-08T17:06:22.961Z,100068.50
2023-04-08T17:11:25.842Z,100056.56
2023-04-08T17:16:29.421Z,100046.09
2023-04-08T17:21:32.828Z,100040.19
2023-04-08T17:26:35.602Z,100030.84
2023-04-08T17:31:40.238Z,100022.53
2023-04-08T17:36:43.414Z,100010.47
2023-04-08T17:41:46.564Z,100006.34
2023-04-08T17:46:49.212Z,99996.88
2023-04-08T17:51:52.096Z,99997.03
2023-04-08T17:56:54.799Z,99989.53
2023-04-08T18:01:57.542Z,99969.22
2023-04-08T18:07:04.195Z,99973.09
2023-04-08T18:12:07.056Z,99965.50
2023-04-08T18:17:10.115Z,99961.91
2023-04-08T18:22:12.847Z,99955.69
2023-04-08T18:27:15.643Z,99940.84
2023-04-08T18:32:18.389Z,99933.38
2023-04-08T18:37:22.055Z,99916.66
2023-04-08T18:42:24.829Z,99877.41
2023-04-08T18:47:27.838Z,99899.22
2023-04-08T18:52:32.490Z,99898.50
2023-04-08T18:57:36.203Z,99879.06
2023-04-08T19:02:39.181Z,99871.19
2023-04-08T19:07:41.900Z,99852.13
2023-04-08T19:12:44.624Z,99848.41
2023-04-08T19:17:47.501Z,99844.59
2023-04-08T19:22:50.666Z,99834.41
2023-04-08T19:27:53.469Z,99815.81
2023-04-08T19:32:56.168Z,99802.72
2023-04-08T19:37:58.980Z,99799.06
2023-04-08T19:43:01.706Z,99791.06
2023-04-08T19:48:04.531Z,99781.81
2023-04-08T19:53:07.240Z,99763.00
2023-04-08T19:58:09.932Z,99772.97
2023-04-08T20:03:14.202Z,99755.31
2023-04-08T20:08:17.013Z,99744.69
2023-04-08T20:13:19.946Z,99738.94
2023-04-08T20:18:23.192Z,99735.06
2023-04-08T20:23:26.990Z,99721.22
2023-04-08T20:28:29.942Z,99735.06
2023-04-08T20:33:32.839Z,99707.78
2023-04-08T20:38:37.214Z,99696.28
2023-04-08T20:43:39.944Z,99689.56
2023-04-08T20:48:42.750Z,99687.41
2023-04-08T20:53:45.405Z,99679.84
2023-04-08T20:58:49.670Z,99674.06
2023-04-08T21:03:53.061Z,99671.59
2023-04-08T21:08:55.809Z,99665.63
2023-04-08T21:13:58.491Z,99662.06
2023-04-08T21:19:02.295Z,99651.84
2023-04-08T21:24:07.358Z,99655.31
2023-04-08T21:29:11.766Z,99650.13
2023-04-08T21:34:14.796Z,99637.78
2023-04-08T21:39:17.516Z,99631.72
2023-04-08T21:44:20.291Z,99624.66
2023-04-08T21:49:23.137Z,99612.94
2023-04-08T21:54:26.254Z,99607.34
2023-04-08T21:59:28.982Z,99609.91
2023-04-08T22:04:31.742Z,99594.00
2023-04-08T22:09:34.820Z,99587.03
2023-04-08T22:14:38.051Z,99598.97
2023-04-08T22:19:40.753Z,99570.88
2023-04-08T22:24:43.423Z,99565.13
2023-04-08T22:29:46.300Z,99559.03
2023-04-08T22:34:49.318Z,99553.72
2023-04-08T22:39:52.124Z,99564.66
2023-04-08T22:44:54.848Z,99554.50
2023-04-08T22:49:58.201Z,99560.44
2023-04-08T22:55:01.212Z,99560.34
2023-04-08T23:00:06.153Z,99559.91
2023-04-08T23:05:09.376Z,99557.28
2023-04-08T23:10:12.345Z,99569.25
2023-04-08T23:15:15.174Z,99572.50
2023-04-08T23:20:17.972Z,99570.22
2023-04-08T23:25:20.724Z,99574.63
2023-04-08T23:30:23.500Z,99564.13
2023-04-08T23:35:26.242Z,99554.56
2023-04-08T23:40:28.952Z,99563.44
2023-04-08T23:45:31.662Z,99556.94
2023-04-08T23:50:34.495Z,99571.88
2023-04-08T23:55:37.124Z,99568.72
